createdAt,value
2023-05-18T00:00:10.977Z,2.30
2023-05-18T00:02:41.145Z,2.43
2023-05-18T00:05:10.166Z,2.50
2023-05-18T00:07:39.333Z,2.53
2023-05-18T00:10:09.435Z,2.60
2023-05-18T00:12:37.504Z,2.43
2023-05-18T00:15:06.922Z,2.57
2023-05-18T00:17:35.066Z,2.33
2023-05-18T00:20:06.354Z,2.90
2023-05-18T00:22:34.365Z,2.23
2023-05-18T00:25:02.481Z,2.37
2023-05-18T00:27:31.365Z,2.47
2023-05-18T00:29:59.367Z,2.43
2023-05-18T00:32:27.568Z,2.60
2023-05-18T00:34:55.687Z,2.30
2023-05-18T00:37:25.606Z,2.27
2023-05-18T00:39:53.782Z,2.07
2023-05-18T00:42:21.998Z,2.57
2023-05-18T00:44:50.038Z,2.40
2023-05-18T00:47:20.893Z,2.27
2023-05-18T00:49:49.017Z,2.70
2023-05-18T00:52:18.726Z,2.83
2023-05-18T00:54:50.425Z,2.17
2023-05-18T00:57:20.116Z,2.33
2023-05-18T00:59:48.616Z,2.40
2023-05-18T01:02:16.998Z,2.50
2023-05-18T01:04:45.157Z,2.50
2023-05-18T01:07:16.554Z,2.63
2023-05-18T01:09:44.682Z,2.40
2023-05-18T01:12:22.819Z,2.20
2023-05-18T01:14:58.796Z,2.20
2023-05-18T01:17:37.602Z,2.00
2023-05-18T01:20:19.138Z,2.70
2023-05-18T01:23:20.462Z,2.33
2023-05-18T01:26:05.329Z,2.57
2023-05-18T01:28:34.683Z,2.40
2023-05-18T01:31:03.667Z,2.60
2023-05-18T01:33:33.909Z,2.50
2023-05-18T01:36:02.967Z,2.67
2023-05-18T01:38:31.495Z,2.30
2023-05-18T01:41:12.046Z,2.60
2023-05-18T01:43:48.708Z,2.57
2023-05-18T01:46:26.195Z,2.53
2023-05-18T01:49:01.336Z,2.60
2023-05-18T01:51:34.906Z,2.33
2023-05-18T01:54:07.780Z,2.60
2023-05-18T01:56:41.316Z,2.83
2023-05-18T01:59:09.746Z,2.47
2023-05-18T02:01:39.374Z,2.37
2023-05-18T02:04:10.232Z,2.67
2023-05-18T02:06:38.706Z,2.57
2023-05-18T02:09:09.020Z,2.27
2023-05-18T02:11:37.137Z,2.03
2023-05-18T02:14:06.773Z,2.43
2023-05-18T02:16:34.898Z,2.23
2023-05-18T02:19:03.266Z,2.43
2023-05-18T02:21:34.678Z,2.33
2023-05-18T02:24:05.083Z,2.60
2023-05-18T02:26:33.151Z,2.27
2023-05-18T02:29:01.289Z,2.43
2023-05-18T02:31:32.494Z,2.60
2023-05-18T02:34:02.640Z,2.70
2023-05-18T02:36:37.137Z,2.40
2023-05-18T02:39:06.490Z,2.20
2023-05-18T02:41:34.891Z,2.57
2023-05-18T02:44:03.837Z,2.50
2023-05-18T02:46:33.969Z,2.53
2023-05-18T02:49:02.798Z,2.53
2023-05-18T02:51:31.330Z,2.47
2023-05-18T02:53:59.538Z,2.33
2023-05-18T02:56:29.072Z,2.40
2023-05-18T02:59:11.416Z,2.30
2023-05-18T03:01:43.986Z,2.73
2023-05-18T03:04:13.982Z,2.80
2023-05-18T03:06:52.726Z,2.17
2023-05-18T03:09:21.884Z,2.33
2023-05-18T03:11:51.643Z,2.57
2023-05-18T03:14:19.705Z,2.50
2023-05-18T03:16:53.969Z,2.57
2023-05-18T03:19:24.578Z,2.47
2023-05-18T03:21:52.694Z,2.20
2023-05-18T03:24:20.917Z,2.27
2023-05-18T03:26:54.039Z,2.57
2023-05-18T03:29:22.951Z,2.33
2023-05-18T03:31:53.241Z,2.60
2023-05-18T03:34:21.306Z,2.27
2023-05-18T03:36:51.690Z,2.50
2023-05-18T03:39:19.739Z,2.50
2023-05-18T03:41:48.126Z,2.10
2023-05-18T03:44:16.254Z,2.80
2023-05-18T03:46:44.511Z,2.47
2023-05-18T03:49:14.257Z,2.60
2023-05-18T03:51:44.132Z,2.70
2023-05-18T03:54:12.399Z,2.60
2023-05-18T03:56:40.979Z,2.83
2023-05-18T03:59:09.234Z,2.57
2023-05-18T04:01:38.107Z,2.13
2023-05-18T04:04:07.277Z,1.90
2023-05-18T04:06:37.400Z,2.50
2023-05-18T04:09:05.694Z,2.87
2023-05-18T04:11:33.874Z,2.57
2023-05-18T04:14:02.832Z,2.43
2023-05-18T04:16:31.144Z,2.27
2023-05-18T04:19:00.455Z,3.10
2023-05-18T04:21:33.767Z,2.20
2023-05-18T04:24:05.143Z,2.47
2023-05-18T04:26:36.336Z,2.90
2023-05-18T04:29:04.524Z,2.80
2023-05-18T04:31:33.703Z,2.30
2023-05-18T04:34:02.127Z,2.33
2023-05-18T04:36:31.039Z,2.53
2023-05-18T04:38:59.765Z,2.30
2023-05-18T04:41:30.428Z,2.33
2023-05-18T04:44:00.836Z,2.57
2023-05-18T04:46:29.561Z,2.60
2023-05-18T04:48:58.804Z,2.70
2023-05-18T04:51:26.835Z,2.47
2023-05-18T04:53:55.731Z,2.60
2023-05-18T04:56:23.842Z,3.30
2023-05-18T04:58:53.204Z,2.53
2023-05-18T05:01:21.461Z,2.50
2023-05-18T05:03:50.078Z,2.60
2023-05-18T05:06:18.350Z,2.63
2023-05-18T05:08:47.882Z,2.27
2023-05-18T05:11:15.996Z,2.70
2023-05-18T05:13:44.058Z,2.97
2023-05-18T05:16:13.422Z,2.60
2023-05-18T05:18:41.495Z,2.43
2023-05-18T05:21:10.563Z,2.70
2023-05-18T05:23:38.663Z,2.60
2023-05-18T05:26:07.002Z,2.40
2023-05-18T05:28:35.559Z,2.40
2023-05-18T05:31:03.645Z,2.47
2023-05-18T05:33:33.689Z,2.47
2023-05-18T05:36:01.950Z,2.70
2023-05-18T05:38:29.987Z,3.00
2023-05-18T05:40:59.193Z,2.60
2023-05-18T05:43:27.494Z,2.43
2023-05-18T05:45:55.798Z,3.93
2023-05-18T05:48:23.986Z,3.07
2023-05-18T05:50:53.334Z,2.70
2023-05-18T05:53:23.371Z,3.00
2023-05-18T05:55:51.450Z,2.63
2023-05-18T05:58:20.680Z,2.50
2023-05-18T06:00:52.987Z,2.50
2023-05-18T06:03:22.002Z,3.07
2023-05-18T06:05:50.919Z,2.60
2023-05-18T06:08:24.156Z,2.53
2023-05-18T06:10:53.670Z,2.47
2023-05-18T06:13:21.839Z,2.80
2023-05-18T06:15:52.642Z,2.50
2023-05-18T06:18:21.449Z,2.43
2023-05-18T06:20:51.198Z,2.37
2023-05-18T06:23:23.589Z,2.17
2023-05-18T06:26:08.088Z,2.50
2023-05-18T06:28:54.234Z,2.40
2023-05-18T06:31:30.581Z,2.90
2023-05-18T06:34:21.908Z,2.30
2023-05-18T06:36:50.062Z,2.90
2023-05-18T06:39:19.479Z,2.30
2023-05-18T06:41:47.743Z,2.50
2023-05-18T06:44:23.908Z,2.00
2023-05-18T06:47:11.550Z,2.40
2023-05-18T06:49:40.011Z,2.40
2023-05-18T06:52:09.829Z,2.27
2023-05-18T06:54:39.901Z,2.87
2023-05-18T06:57:08.339Z,2.37
2023-05-18T06:59:36.418Z,2.30
2023-05-18T07:02:04.989Z,2.17
2023-05-18T07:04:36.831Z,2.43
2023-05-18T07:07:05.143Z,2.50
2023-05-18T07:09:33.230Z,2.37
2023-05-18T07:12:02.654Z,2.43
2023-05-18T07:14:30.766Z,2.03
2023-05-18T07:16:58.790Z,2.20
2023-05-18T07:19:27.046Z,1.83
2023-05-18T07:21:56.759Z,2.55
2023-05-18T07:24:24.756Z,2.63
2023-05-18T07:26:52.745Z,2.57
2023-05-18T07:29:22.094Z,2.53
2023-05-18T07:31:50.234Z,2.73
2023-05-18T07:34:18.367Z,2.40
2023-05-18T07:36:46.454Z,2.33
2023-05-18T07:39:19.685Z,2.58
2023-05-18T07:41:48.433Z,2.33
2023-05-18T07:44:16.826Z,2.30
2023-05-18T07:46:46.209Z,2.72
2023-05-18T07:49:14.251Z,2.20
2023-05-18T07:51:42.479Z,2.57
2023-05-18T07:54:10.511Z,2.40
2023-05-18T07:56:39.227Z,2.50
2023-05-18T07:59:07.696Z,2.47
2023-05-18T08:01:37.729Z,2.20
2023-05-18T08:04:07.623Z,2.38
2023-05-18T08:06:35.948Z,2.30
2023-05-18T08:09:04.366Z,2.40
2023-05-18T08:11:32.357Z,2.35
2023-05-18T08:14:00.422Z,1.98
2023-05-18T08:16:28.482Z,2.22
2023-05-18T08:18:56.604Z,2.30
2023-05-18T08:21:26.160Z,2.60
2023-05-18T08:23:54.218Z,2.72
2023-05-18T08:26:22.978Z,2.13
2023-05-18T08:28:51.137Z,2.20
2023-05-18T08:31:19.213Z,2.20
2023-05-18T08:33:47.257Z,2.42
2023-05-18T08:36:16.764Z,3.08
2023-05-18T08:38:46.091Z,2.67
2023-05-18T08:41:22.532Z,2.55
2023-05-18T08:44:00.405Z,2.50
2023-05-18T08:46:34.245Z,2.33
2023-05-18T08:49:04.291Z,2.42
2023-05-18T08:51:37.030Z,2.97
2023-05-18T08:54:07.221Z,2.28
2023-05-18T08:56:35.649Z,2.03
2023-05-18T08:59:07.678Z,2.10
2023-05-18T09:01:36.975Z,2.35
2023-05-18T09:04:06.091Z,3.10
2023-05-18T09:06:35.714Z,2.28
2023-05-18T09:09:05.328Z,2.05
2023-05-18T09:11:36.333Z,2.70
2023-05-18T09:14:04.474Z,2.38
2023-05-18T09:16:33.200Z,2.35
2023-05-18T09:19:01.637Z,2.63
2023-05-18T09:21:32.298Z,2.40
2023-05-18T09:24:01.293Z,2.38
2023-05-18T09:26:29.489Z,3.03
2023-05-18T09:28:59.443Z,2.67
2023-05-18T09:31:27.654Z,2.42
2023-05-18T09:33:55.946Z,2.75
2023-05-18T09:36:29.062Z,2.85
2023-05-18T09:38:58.408Z,2.85
2023-05-18T09:41:28.441Z,2.33
2023-05-18T09:43:57.800Z,2.70
2023-05-18T09:46:26.005Z,2.47
2023-05-18T09:48:56.754Z,2.70
2023-05-18T09:51:25.546Z,3.25
2023-05-18T09:53:57.239Z,3.08
2023-05-18T09:56:26.696Z,2.88
2023-05-18T09:58:55.140Z,2.53
2023-05-18T10:01:24.649Z,2.50
2023-05-18T10:03:53.345Z,2.53
2023-05-18T10:06:27.710Z,2.35
2023-05-18T10:08:58.308Z,2.40
2023-05-18T10:11:27.435Z,2.72
2023-05-18T10:13:56.742Z,2.97
2023-05-18T10:16:26.929Z,2.30
2023-05-18T10:18:56.765Z,2.60
2023-05-18T10:21:28.347Z,2.53
2023-05-18T10:23:56.694Z,2.38
2023-05-18T10:26:28.956Z,2.58
2023-05-18T10:29:00.482Z,2.28
2023-05-18T10:31:32.277Z,2.45
2023-05-18T10:34:01.310Z,2.40
2023-05-18T10:36:32.643Z,2.72
2023-05-18T10:39:01.986Z,2.40
2023-05-18T10:41:32.453Z,2.40
2023-05-18T10:44:04.030Z,2.88
2023-05-18T10:46:34.923Z,2.60
2023-05-18T10:49:07.999Z,2.40
2023-05-18T10:51:36.897Z,2.28
2023-05-18T10:54:13.959Z,2.67
2023-05-18T10:56:45.536Z,2.78
2023-05-18T10:59:15.920Z,2.30
2023-05-18T11:01:46.716Z,2.47
2023-05-18T11:04:15.071Z,2.35
2023-05-18T11:06:43.312Z,2.33
2023-05-18T11:09:24.394Z,2.50
2023-05-18T11:11:54.003Z,2.13
2023-05-18T11:14:29.572Z,2.58
2023-05-18T11:17:21.214Z,2.55
2023-05-18T11:20:15.902Z,2.30
2023-05-18T11:22:48.246Z,2.42
2023-05-18T11:25:39.769Z,2.40
2023-05-18T11:28:10.612Z,2.05
2023-05-18T11:30:51.391Z,2.53
2023-05-18T11:33:30.234Z,2.20
2023-05-18T11:36:08.158Z,2.28
2023-05-18T11:38:53.453Z,2.25
2023-05-18T11:41:34.097Z,2.47
2023-05-18T11:44:18.606Z,2.47
2023-05-18T11:46:55.227Z,2.60
2023-05-18T11:49:27.750Z,2.65
2023-05-18T11:52:08.133Z,2.35
2023-05-18T11:54:41.885Z,2.22
2023-05-18T11:57:11.138Z,2.72
2023-05-18T11:59:42.168Z,2.60
2023-05-18T12:02:12.379Z,2.53
2023-05-18T12:04:48.595Z,2.25
2023-05-18T12:07:17.574Z,2.15
2023-05-18T12:09:46.974Z,2.42
2023-05-18T12:12:19.914Z,2.50
2023-05-18T12:14:55.347Z,2.33
2023-05-18T12:17:24.333Z,2.42
2023-05-18T12:19:53.828Z,2.45
2023-05-18T12:22:21.886Z,2.30
2023-05-18T12:24:53.474Z,2.15
2023-05-18T12:27:22.916Z,2.13
2023-05-18T12:29:51.768Z,2.53
2023-05-18T12:32:20.775Z,2.47
2023-05-18T12:34:48.988Z,2.40
2023-05-18T12:37:18.382Z,2.42
2023-05-18T12:39:46.398Z,2.42
2023-05-18T12:42:16.010Z,2.25
2023-05-18T12:44:45.820Z,2.72
2023-05-18T12:47:14.981Z,2.22
2023-05-18T12:49:49.017Z,2.15
2023-05-18T12:52:18.437Z,2.40
2023-05-18T12:54:59.933Z,2.25
2023-05-18T12:57:30.896Z,1.88
2023-05-18T12:59:59.642Z,2.50
2023-05-18T13:02:33.493Z,2.53
2023-05-18T13:05:04.546Z,2.42
2023-05-18T13:07:36.599Z,2.90
2023-05-18T13:10:10.454Z,2.63
2023-05-18T13:12:45.142Z,2.38
2023-05-18T13:15:15.896Z,2.28
2023-05-18T13:17:57.805Z,2.70
2023-05-18T13:20:35.932Z,2.50
2023-05-18T13:23:08.776Z,2.40
2023-05-18T13:25:37.162Z,2.50
2023-05-18T13:28:06.261Z,2.15
2023-05-18T13:30:34.710Z,2.42
2023-05-18T13:33:02.796Z,2.70
2023-05-18T13:35:31.301Z,2.35
2023-05-18T13:37:59.616Z,2.58
2023-05-18T13:40:29.141Z,2.35
2023-05-18T13:42:57.243Z,2.17
2023-05-18T13:45:25.453Z,2.08
2023-05-18T13:47:53.974Z,2.17
2023-05-18T13:50:22.837Z,2.60
2023-05-18T13:52:50.999Z,2.42
2023-05-18T13:55:19.357Z,2.70
2023-05-18T13:57:48.766Z,2.55
2023-05-18T14:00:17.925Z,2.63
2023-05-18T14:02:46.427Z,1.95
2023-05-18T14:05:16.213Z,2.60
2023-05-18T14:07:44.868Z,2.80
2023-05-18T14:10:14.324Z,2.47
2023-05-18T14:12:43.279Z,2.30
2023-05-18T14:15:14.710Z,2.20
2023-05-18T14:17:43.618Z,2.38
2023-05-18T14:20:13.172Z,2.35
2023-05-18T14:22:41.686Z,2.85
2023-05-18T14:25:10.574Z,2.60
2023-05-18T14:27:38.654Z,2.38
2023-05-18T14:30:08.526Z,2.45
2023-05-18T14:32:37.987Z,2.50
2023-05-18T14:35:07.289Z,2.33
2023-05-18T14:37:35.368Z,2.25
2023-05-18T14:40:05.798Z,2.45
2023-05-18T14:42:33.918Z,2.30
2023-05-18T14:45:01.946Z,2.40
2023-05-18T14:47:30.035Z,2.20
2023-05-18T14:49:59.464Z,2.55
2023-05-18T14:52:27.496Z,2.00
2023-05-18T14:54:55.497Z,2.38
2023-05-18T14:57:25.379Z,2.45
2023-05-18T14:59:54.644Z,2.58
2023-05-18T15:02:22.821Z,2.50
2023-05-18T15:04:50.961Z,2.50
2023-05-18T15:07:20.356Z,2.80
2023-05-18T15:09:48.424Z,2.35
2023-05-18T15:12:17.051Z,2.40
2023-05-18T15:14:45.102Z,2.63
2023-05-18T15:17:14.908Z,2.45
2023-05-18T15:19:42.953Z,2.30
2023-05-18T15:22:11.152Z,2.00
2023-05-18T15:24:40.665Z,2.60
2023-05-18T15:27:09.063Z,2.28
2023-05-18T15:29:37.133Z,2.72
2023-05-18T15:32:06.273Z,2.30
2023-05-18T15:34:35.119Z,2.60
2023-05-18T15:37:03.322Z,2.47
2023-05-18T15:39:32.149Z,2.30
2023-05-18T15:42:01.477Z,2.50
2023-05-18T15:44:29.884Z,2.75
2023-05-18T15:46:58.178Z,2.53
2023-05-18T15:49:26.155Z,2.58
2023-05-18T15:51:54.273Z,2.63
2023-05-18T15:54:22.302Z,2.28
2023-05-18T15:56:50.986Z,2.38
2023-05-18T15:59:20.386Z,2.13
2023-05-18T16:01:48.556Z,2.55
2023-05-18T16:04:16.735Z,2.55
2023-05-18T16:06:44.996Z,2.10
2023-05-18T16:09:13.055Z,2.40
2023-05-18T16:11:41.122Z,2.58
2023-05-18T16:14:09.137Z,2.53
2023-05-18T16:16:38.573Z,2.20
2023-05-18T16:19:07.374Z,2.30
2023-05-18T16:21:35.665Z,2.58
2023-05-18T16:24:03.750Z,2.28
2023-05-18T16:26:33.528Z,2.42
2023-05-18T16:29:03.169Z,2.58
2023-05-18T16:31:31.313Z,2.80
2023-05-18T16:34:00.759Z,2.30
2023-05-18T16:36:28.881Z,2.22
2023-05-18T16:38:56.912Z,2.50
2023-05-18T16:41:24.970Z,2.40
2023-05-18T16:43:53.031Z,2.38
2023-05-18T16:46:21.127Z,2.42
2023-05-18T16:48:49.164Z,2.10
2023-05-18T16:51:18.587Z,2.60
2023-05-18T16:53:46.700Z,2.65
2023-05-18T16:56:14.754Z,2.45
2023-05-18T16:58:42.884Z,2.33
2023-05-18T17:01:23.518Z,2.35
2023-05-18T17:03:56.123Z,2.20
2023-05-18T17:06:26.163Z,2.70
2023-05-18T17:08:57.972Z,2.33
2023-05-18T17:11:27.640Z,2.53
2023-05-18T17:13:57.359Z,2.55
2023-05-18T17:16:26.632Z,3.05
2023-05-18T17:18:55.925Z,2.40
2023-05-18T17:21:28.090Z,2.40
2023-05-18T17:23:56.273Z,2.38
2023-05-18T17:26:25.311Z,2.42
2023-05-18T17:28:53.554Z,2.20
2023-05-18T17:31:21.584Z,2.40
2023-05-18T17:33:49.655Z,2.70
2023-05-18T17:36:18.112Z,2.72
2023-05-18T17:38:47.736Z,2.47
2023-05-18T17:41:15.802Z,2.72
2023-05-18T17:43:43.879Z,2.15
2023-05-18T17:46:11.906Z,2.35
2023-05-18T17:48:40.036Z,2.60
2023-05-18T17:51:08.141Z,2.78
2023-05-18T17:53:41.741Z,2.92
2023-05-18T17:56:12.143Z,2.50
2023-05-18T17:58:40.333Z,2.22
2023-05-18T18:01:08.877Z,2.63
2023-05-18T18:03:37.734Z,2.30
2023-05-18T18:06:06.730Z,2.40
2023-05-18T18:08:35.103Z,2.70
2023-05-18T18:11:03.423Z,2.10
2023-05-18T18:13:32.809Z,2.42
2023-05-18T18:16:01.026Z,2.70
2023-05-18T18:18:29.321Z,2.50
2023-05-18T18:20:57.345Z,2.20
2023-05-18T18:23:25.559Z,2.35
2023-05-18T18:25:53.595Z,2.53
2023-05-18T18:28:21.778Z,2.72
2023-05-18T18:30:51.257Z,2.40
2023-05-18T18:33:19.774Z,2.65
2023-05-18T18:35:47.981Z,2.80
2023-05-18T18:38:16.119Z,2.40
2023-05-18T18:40:44.221Z,2.97
2023-05-18T18:43:12.348Z,3.38
2023-05-18T18:45:40.549Z,2.85
2023-05-18T18:48:09.979Z,2.58
2023-05-18T18:50:38.149Z,2.78
2023-05-18T18:53:06.326Z,2.80
2023-05-18T18:55:34.618Z,2.67
2023-05-18T18:58:02.755Z,2.75
2023-05-18T19:00:31.517Z,2.95
2023-05-18T19:02:59.735Z,2.63
2023-05-18T19:05:30.899Z,2.65
2023-05-18T19:07:59.325Z,2.58
2023-05-18T19:10:27.422Z,2.55
2023-05-18T19:12:56.916Z,2.40
2023-05-18T19:15:24.961Z,2.78
2023-05-18T19:17:53.804Z,2.08
2023-05-18T19:20:23.443Z,2.60
2023-05-18T19:22:54.027Z,2.78
2023-05-18T19:25:24.177Z,3.10
2023-05-18T19:27:52.704Z,2.55
2023-05-18T19:30:21.759Z,2.72
2023-05-18T19:32:51.421Z,2.53
2023-05-18T19:35:20.231Z,2.15
2023-05-18T19:37:48.301Z,2.53
2023-05-18T19:40:17.953Z,2.83
2023-05-18T19:42:46.012Z,2.88
2023-05-18T19:45:14.087Z,3.00
2023-05-18T19:47:42.089Z,3.10
2023-05-18T19:50:10.465Z,3.22
2023-05-18T19:52:38.502Z,2.83
2023-05-18T19:55:08.019Z,3.33
2023-05-18T19:57:37.537Z,3.33
2023-05-18T20:00:10.876Z,3.78
2023-05-18T20:02:41.585Z,3.58
2023-05-18T20:05:12.411Z,3.75
2023-05-18T20:07:40.938Z,4.03
2023-05-18T20:10:09.102Z,3.97
2023-05-18T20:12:38.454Z,4.05
2023-05-18T20:15:08.867Z,3.38
2023-05-18T20:17:37.457Z,4.38
2023-05-18T20:20:08.012Z,4.25
2023-05-18T20:22:36.252Z,4.40
2023-05-18T20:25:05.311Z,4.03
2023-05-18T20:27:33.340Z,3.78
2023-05-18T20:30:02.777Z,3.55
2023-05-18T20:32:32.511Z,3.65
2023-05-18T20:35:00.718Z,3.90
2023-05-18T20:37:28.774Z,3.88
2023-05-18T20:39:57.224Z,3.40
2023-05-18T20:42:31.773Z,3.97
2023-05-18T20:44:59.855Z,4.07
2023-05-18T20:47:31.654Z,3.85
2023-05-18T20:49:59.971Z,4.40
2023-05-18T20:52:28.843Z,4.05
2023-05-18T20:54:56.998Z,3.67
2023-05-18T20:57:27.674Z,3.30
2023-05-18T20:59:55.846Z,3.50
2023-05-18T21:02:23.960Z,3.20
2023-05-18T21:04:57.620Z,3.65
2023-05-18T21:07:25.776Z,3.40
2023-05-18T21:09:53.796Z,3.67
2023-05-18T21:12:21.918Z,3.28
2023-05-18T21:14:50.066Z,3.17
2023-05-18T21:17:18.181Z,2.97
2023-05-18T21:19:46.225Z,3.38
2023-05-18T21:22:15.656Z,3.00
2023-05-18T21:24:43.646Z,2.80
2023-05-18T21:27:11.726Z,2.30
2023-05-18T21:29:39.803Z,2.28
2023-05-18T21:32:08.519Z,2.10
2023-05-18T21:34:36.738Z,2.75
2023-05-18T21:37:05.043Z,2.00
2023-05-18T21:39:34.478Z,2.30
2023-05-18T21:42:03.333Z,2.40
2023-05-18T21:44:31.422Z,2.25
2023-05-18T21:46:59.495Z,2.55
2023-05-18T21:49:27.562Z,2.35
2023-05-18T21:51:56.074Z,2.40
2023-05-18T21:54:24.135Z,2.33
2023-05-18T21:56:53.577Z,1.95
2023-05-18T21:59:21.579Z,2.20
2023-05-18T22:01:49.595Z,2.50
2023-05-18T22:04:18.283Z,2.38
2023-05-18T22:06:46.411Z,2.50
2023-05-18T22:09:14.497Z,2.42
2023-05-18T22:11:42.560Z,2.45
2023-05-18T22:14:11.913Z,2.42
2023-05-18T22:16:39.957Z,2.35
2023-05-18T22:19:08.112Z,2.53
2023-05-18T22:21:36.251Z,2.47
2023-05-18T22:24:04.513Z,2.38
2023-05-18T22:26:32.619Z,2.25
2023-05-18T22:29:00.628Z,2.50
2023-05-18T22:31:30.057Z,2.30
2023-05-18T22:33:58.120Z,2.17
2023-05-18T22:36:27.364Z,2.38
2023-05-18T22:38:56.750Z,2.47
2023-05-18T22:41:24.885Z,2.10
2023-05-18T22:43:52.932Z,2.10
2023-05-18T22:46:21.180Z,2.40
2023-05-18T22:48:50.558Z,2.47
2023-05-18T22:51:18.657Z,2.40
2023-05-18T22:53:46.748Z,2.30
2023-05-18T22:56:18.445Z,2.30
2023-05-18T22:58:46.746Z,2.42
2023-05-18T23:01:14.810Z,2.25
2023-05-18T23:03:42.811Z,2.38
2023-05-18T23:06:12.192Z,2.30
2023-05-18T23:08:40.291Z,1.90
2023-05-18T23:11:08.290Z,2.20
2023-05-18T23:13:37.493Z,2.50
2023-05-18T23:16:10.183Z,2.22
2023-05-18T23:18:38.652Z,1.90
2023-05-18T23:21:08.840Z,2.00
2023-05-18T23:23:38.220Z,2.28
2023-05-18T23:26:06.393Z,2.35
2023-05-18T23:28:34.485Z,2.45
2023-05-18T23:31:02.591Z,2.33
2023-05-18T23:33:31.392Z,2.22
2023-05-18T23:36:03.796Z,2.60
2023-05-18T23:38:37.545Z,2.30
2023-05-18T23:41:08.396Z,2.28
2023-05-18T23:43:37.475Z,2.60
2023-05-18T23:46:06.647Z,2.53
2023-05-18T23:48:35.827Z,2.38
2023-05-18T23:51:04.905Z,2.20
2023-05-18T23:53:34.139Z,1.88
2023-05-18T23:56:03.691Z,2.33
2023-05-18T23:58:33.853Z,2.42
